sensor_id;sensor_type;location;lat;lon;timestamp;pressure;altitude;pressure_sealevel;temperature;humidity
30614;BME280;17381;51.690;5.270;2022-09-21T00:00:33;102633.44;;;12.91;69.03
30614;BME280;17381;51.690;5.270;2022-09-21T00:03:57;102645.78;;;12.88;69.02
30614;BME280;17381;51.690;5.270;2022-09-21T00:07:13;102637.94;;;12.75;68.65
30614;BME280;17381;51.690;5.270;2022-09-21T00:13:24;102646.78;;;12.64;68.65
30614;BME280;17381;51.690;5.270;2022-09-21T00:20:58;102642.44;;;12.56;69.40
30614;BME280;17381;51.690;5.270;2022-09-21T00:23:52;102631.91;;;12.51;69.66
30614;BME280;17381;51.690;5.270;2022-09-21T00:27:38;102638.91;;;12.57;69.60
30614;BME280;17381;51.690;5.270;2022-09-21T00:30:12;102634.53;;;12.51;70.06
30614;BME280;17381;51.690;5.270;2022-09-21T00:33:53;102637.16;;;12.56;69.78
30614;BME280;17381;51.690;5.270;2022-09-21T00:39:34;102645.97;;;12.55;70.10
30614;BME280;17381;51.690;5.270;2022-09-21T00:49:59;102647.72;;;12.56;70.20
30614;BME280;17381;51.690;5.270;2022-09-21T00:53:31;102643.34;;;12.53;70.32
30614;BME280;17381;51.690;5.270;2022-09-21T01:38:47;102654.06;;;12.01;70.35
30614;BME280;17381;51.690;5.270;2022-09-21T09:50:45;102749.16;;;15.84;63.06
30614;BME280;17381;51.690;5.270;2022-09-21T10:09:42;102752.00;;;16.24;60.86
30614;BME280;17381;51.690;5.270;2022-09-21T10:16:39;102735.72;;;16.41;59.48
30614;BME280;17381;51.690;5.270;2022-09-21T10:20:56;102721.22;;;16.59;59.72
30614;BME280;17381;51.690;5.270;2022-09-21T10:27:33;102718.97;;;16.83;58.18
30614;BME280;17381;51.690;5.270;2022-09-21T10:42:24;102706.34;;;17.67;54.03
30614;BME280;17381;51.690;5.270;2022-09-21T10:46:02;102709.25;;;17.94;55.27
30614;BME280;17381;51.690;5.270;2022-09-21T10:57:29;102693.06;;;18.34;53.22
30614;BME280;17381;51.690;5.270;2022-09-21T11:50:27;102676.28;;;21.38;45.32
30614;BME280;17381;51.690;5.270;2022-09-21T11:58:00;102672.31;;;21.89;46.79
30614;BME280;17381;51.690;5.270;2022-09-21T12:05:08;102665.66;;;22.38;45.34
30614;BME280;17381;51.690;5.270;2022-09-21T12:12:50;102660.44;;;22.54;42.89
30614;BME280;17381;51.690;5.270;2022-09-21T12:39:15;102626.78;;;23.04;38.75
30614;BME280;17381;51.690;5.270;2022-09-21T13:01:31;102617.19;;;23.35;41.58
30614;BME280;17381;51.690;5.270;2022-09-21T13:08:18;102606.75;;;23.63;41.30
30614;BME280;17381;51.690;5.270;2022-09-21T13:15:04;102612.03;;;23.13;38.42
30614;BME280;17381;51.690;5.270;2022-09-21T13:19:04;102597.63;;;22.22;38.86
30614;BME280;17381;51.690;5.270;2022-09-21T13:22:34;102607.25;;;21.87;41.56
30614;BME280;17381;51.690;5.270;2022-09-21T13:52:35;102586.72;;;21.04;44.81
30614;BME280;17381;51.690;5.270;2022-09-21T13:56:02;102588.22;;;21.53;45.34
30614;BME280;17381;51.690;5.270;2022-09-21T13:59:01;102582.31;;;22.05;45.11
30614;BME280;17381;51.690;5.270;2022-09-21T14:01:37;102535.25;;;22.18;44.49
30614;BME280;17381;51.690;5.270;2022-09-21T14:04:31;102558.69;;;22.70;43.64
30614;BME280;17381;51.690;5.270;2022-09-21T14:07:11;102577.09;;;23.14;42.24
30614;BME280;17381;51.690;5.270;2022-09-21T14:10:06;102576.06;;;23.34;40.91
30614;BME280;17381;51.690;5.270;2022-09-21T14:12:51;102566.19;;;23.52;41.30
30614;BME280;17381;51.690;5.270;2022-09-21T14:21:08;102567.00;;;23.37;41.33
30614;BME280;17381;51.690;5.270;2022-09-21T14:27:43;102512.16;;;22.16;40.91
30614;BME280;17381;51.690;5.270;2022-09-21T14:30:23;102559.22;;;22.03;41.01
30614;BME280;17381;51.690;5.270;2022-09-21T14:33:20;102553.88;;;21.63;41.70
30614;BME280;17381;51.690;5.270;2022-09-21T14:36:36;102562.94;;;21.18;40.98
30614;BME280;17381;51.690;5.270;2022-09-21T14:39:53;102560.16;;;20.79;42.18
30614;BME280;17381;51.690;5.270;2022-09-21T14:42:56;102564.84;;;20.50;42.37
30614;BME280;17381;51.690;5.270;2022-09-21T14:56:00;102555.66;;;19.88;44.45
30614;BME280;17381;51.690;5.270;2022-09-21T15:02:09;102539.09;;;19.53;44.40
30614;BME280;17381;51.690;5.270;2022-09-21T15:05:17;102542.03;;;19.46;44.13
30614;BME280;17381;51.690;5.270;2022-09-21T15:11:38;102501.69;;;19.05;45.74
30614;BME280;17381;51.690;5.270;2022-09-21T15:17:33;102534.63;;;19.04;44.54
30614;BME280;17381;51.690;5.270;2022-09-21T15:20:19;102536.56;;;18.99;44.90
30614;BME280;17381;51.690;5.270;2022-09-21T15:23:13;102515.66;;;18.86;45.46
30614;BME280;17381;51.690;5.270;2022-09-21T15:37:33;102529.47;;;18.71;47.09
30614;BME280;17381;51.690;5.270;2022-09-21T15:40:06;102524.22;;;18.68;48.13
30614;BME280;17381;51.690;5.270;2022-09-21T15:43:16;102477.97;;;18.44;48.91
30614;BME280;17381;51.690;5.270;2022-09-21T15:46:02;102520.72;;;18.67;48.70
30614;BME280;17381;51.690;5.270;2022-09-21T15:52:52;102521.16;;;18.53;48.57
30614;BME280;17381;51.690;5.270;2022-09-21T15:55:38;102492.53;;;18.32;48.87
30614;BME280;17381;51.690;5.270;2022-09-21T15:58:53;102514.22;;;18.48;49.08
30614;BME280;17381;51.690;5.270;2022-09-21T16:02:19;102515.28;;;18.42;49.29
30614;BME280;17381;51.690;5.270;2022-09-21T16:04:55;102515.28;;;18.42;49.30
30614;BME280;17381;51.690;5.270;2022-09-21T16:07:48;102470.00;;;18.16;50.26
30614;BME280;17381;51.690;5.270;2022-09-21T16:10:36;102500.66;;;18.27;50.18
30614;BME280;17381;51.690;5.270;2022-09-21T16:13:24;102517.13;;;18.40;49.90
30614;BME280;17381;51.690;5.270;2022-09-21T16:16:19;102519.06;;;18.35;49.76
30614;BME280;17381;51.690;5.270;2022-09-21T16:18:55;102516.31;;;18.38;49.29
30614;BME280;17381;51.690;5.270;2022-09-21T16:21:35;102509.22;;;18.39;49.19
30614;BME280;17381;51.690;5.270;2022-09-21T16:31:48;102504.25;;;18.26;49.21
30614;BME280;17381;51.690;5.270;2022-09-21T16:34:51;102511.28;;;18.29;49.05
30614;BME280;17381;51.690;5.270;2022-09-21T16:38:10;102504.50;;;18.19;49.17
30614;BME280;17381;51.690;5.270;2022-09-21T16:41:07;102508.94;;;18.18;49.05
30614;BME280;17381;51.690;5.270;2022-09-21T16:43:52;102516.13;;;18.15;49.82
30614;BME280;17381;51.690;5.270;2022-09-21T16:46:33;102518.88;;;18.13;49.83
30614;BME280;17381;51.690;5.270;2022-09-21T16:49:19;102527.75;;;18.12;49.96
30614;BME280;17381;51.690;5.270;2022-09-21T16:52:02;102520.84;;;18.06;50.34
30614;BME280;17381;51.690;5.270;2022-09-21T16:54:49;102500.16;;;17.86;50.43
30614;BME280;17381;51.690;5.270;2022-09-21T16:57:34;102519.31;;;17.98;51.81
30614;BME280;17381;51.690;5.270;2022-09-21T17:00:22;102510.84;;;17.85;52.58
30614;BME280;17381;51.690;5.270;2022-09-21T17:03:02;102524.97;;;17.87;52.33
30614;BME280;17381;51.690;5.270;2022-09-21T17:05:51;102516.19;;;17.83;52.81
30614;BME280;17381;51.690;5.270;2022-09-21T17:08:45;102528.03;;;17.72;50.83
30614;BME280;17381;51.690;5.270;2022-09-21T17:11:20;102524.88;;;17.57;50.61
30614;BME280;17381;51.690;5.270;2022-09-21T17:14:11;102532.09;;;17.54;51.23
30614;BME280;17381;51.690;5.270;2022-09-21T17:16:53;102473.69;;;17.18;51.40
30614;BME280;17381;51.690;5.270;2022-09-21T17:19:25;102516.44;;;17.43;51.64
30614;BME280;17381;51.690;5.270;2022-09-21T17:22:16;102474.66;;;17.15;51.47
30614;BME280;17381;51.690;5.270;2022-09-21T17:24:47;102527.16;;;17.40;51.73
30614;BME280;17381;51.690;5.270;2022-09-21T17:27:35;102526.25;;;17.39;52.29
30614;BME280;17381;51.690;5.270;2022-09-21T17:30:10;102521.03;;;17.36;52.62
30614;BME280;17381;51.690;5.270;2022-09-21T17:32:41;102516.75;;;17.31;52.95
30614;BME280;17381;51.690;5.270;2022-09-21T17:35:59;102516.75;;;17.31;53.05
30614;BME280;17381;51.690;5.270;2022-09-21T17:38:07;102516.88;;;17.26;53.67
30614;BME280;17381;51.690;5.270;2022-09-21T17:40:36;102509.16;;;17.17;53.72
30614;BME280;17381;51.690;5.270;2022-09-21T17:46:26;102519.16;;;17.07;53.85
30614;BME280;17381;51.690;5.270;2022-09-21T17:49:09;102519.25;;;17.04;53.69
30614;BME280;17381;51.690;5.270;2022-09-21T17:51:38;102535.31;;;16.98;53.50
30614;BME280;17381;51.690;5.270;2022-09-21T17:54:26;102521.38;;;16.90;53.69
30614;BME280;17381;51.690;5.270;2022-09-21T17:59:35;102513.84;;;16.70;53.85
30614;BME280;17381;51.690;5.270;2022-09-21T18:02:22;102519.25;;;16.67;54.22
30614;BME280;17381;51.690;5.270;2022-09-21T18:05:14;102521.25;;;16.57;54.18
30614;BME280;17381;51.690;5.270;2022-09-21T18:07:47;102532.13;;;16.46;54.08
30614;BME280;17381;51.690;5.270;2022-09-21T18:10:44;102528.78;;;16.36;54.35
30614;BME280;17381;51.690;5.270;2022-09-21T18:16:42;102533.69;;;16.16;55.00
30614;BME280;17381;51.690;5.270;2022-09-21T18:20:15;102527.63;;;16.09;55.07
30614;BME280;17381;51.690;5.270;2022-09-21T18:22:33;102535.78;;;16.00;55.18
30614;BME280;17381;51.690;5.270;2022-09-21T18:25:24;102537.66;;;15.95;55.52
30614;BME280;17381;51.690;5.270;2022-09-21T18:27:51;102531.72;;;15.84;55.48
30614;BME280;17381;51.690;5.270;2022-09-21T18:30:26;102529.22;;;15.76;55.71
30614;BME280;17381;51.690;5.270;2022-09-21T18:33:04;102529.34;;;15.70;55.83
30614;BME280;17381;51.690;5.270;2022-09-21T18:38:48;102533.06;;;15.60;56.18
30614;BME280;17381;51.690;5.270;2022-09-21T18:41:34;102543.81;;;15.51;56.65
30614;BME280;17381;51.690;5.270;2022-09-21T18:44:14;102467.09;;;14.96;56.63
30614;BME280;17381;51.690;5.270;2022-09-21T18:52:56;102546.09;;;15.22;57.57
30614;BME280;17381;51.690;5.270;2022-09-21T18:55:39;102548.00;;;15.16;57.99
30614;BME280;17381;51.690;5.270;2022-09-21T18:58:20;102549.78;;;15.14;58.16
30614;BME280;17381;51.690;5.270;2022-09-21T19:00:50;102551.66;;;15.09;58.49
30614;BME280;17381;51.690;5.270;2022-09-21T19:03:33;102548.13;;;15.07;58.42
30614;BME280;17381;51.690;5.270;2022-09-21T19:06:55;102561.44;;;15.02;58.36
30614;BME280;17381;51.690;5.270;2022-09-21T19:09:22;102553.63;;;14.94;58.49
30614;BME280;17381;51.690;5.270;2022-09-21T19:15:12;102560.03;;;14.82;58.79
30614;BME280;17381;51.690;5.270;2022-09-21T19:18:22;102550.41;;;14.77;59.50
30614;BME280;17381;51.690;5.270;2022-09-21T19:23:51;102561.13;;;14.69;59.31
30614;BME280;17381;51.690;5.270;2022-09-21T19:32:00;102545.50;;;14.49;59.65
30614;BME280;17381;51.690;5.270;2022-09-21T19:34:32;102557.00;;;14.47;59.79
30614;BME280;17381;51.690;5.270;2022-09-21T19:37:03;102557.91;;;14.44;59.91
30614;BME280;17381;51.690;5.270;2022-09-21T19:39:38;102554.44;;;14.40;59.71
30614;BME280;17381;51.690;5.270;2022-09-21T19:45:15;102553.59;;;14.37;60.14
30614;BME280;17381;51.690;5.270;2022-09-21T19:47:52;102553.75;;;14.28;59.96
30614;BME280;17381;51.690;5.270;2022-09-21T19:50:37;102558.16;;;14.26;60.28
30614;BME280;17381;51.690;5.270;2022-09-21T19:53:10;102552.13;;;14.14;60.29
30614;BME280;17381;51.690;5.270;2022-09-21T19:56:01;102562.69;;;14.14;60.64
30614;BME280;17381;51.690;5.270;2022-09-21T19:58:49;102507.59;;;13.81;60.46
30614;BME280;17381;51.690;5.270;2022-09-21T20:01:46;102509.44;;;13.75;60.66
30614;BME280;17381;51.690;5.270;2022-09-21T20:04:33;102562.00;;;14.00;61.09
30614;BME280;17381;51.690;5.270;2022-09-21T20:07:08;102562.09;;;13.94;61.13
30614;BME280;17381;51.690;5.270;2022-09-21T20:09:57;102557.78;;;13.85;61.56
30614;BME280;17381;51.690;5.270;2022-09-21T20:12:36;102557.88;;;13.79;61.61
30614;BME280;17381;51.690;5.270;2022-09-21T20:15:16;102560.47;;;13.81;61.40
30614;BME280;17381;51.690;5.270;2022-09-21T20:17:48;102564.94;;;13.77;61.27
30614;BME280;17381;51.690;5.270;2022-09-21T20:20:22;102569.38;;;13.73;61.65
30614;BME280;17381;51.690;5.270;2022-09-21T20:22:57;102561.53;;;13.64;61.70
30614;BME280;17381;51.690;5.270;2022-09-21T20:25:59;102553.56;;;13.67;61.67
30614;BME280;17381;51.690;5.270;2022-09-21T20:28:27;102558.94;;;13.60;61.64
30614;BME280;17381;51.690;5.270;2022-09-21T20:30:53;102562.50;;;13.57;61.46
30614;BME280;17381;51.690;5.270;2022-09-21T20:33:22;102569.56;;;13.55;61.89
30614;BME280;17381;51.690;5.270;2022-09-21T20:35:59;102529.31;;;13.30;61.66
30614;BME280;17381;51.690;5.270;2022-09-21T20:38:29;102559.13;;;13.40;61.87
30614;BME280;17381;51.690;5.270;2022-09-21T20:40:59;102560.91;;;13.41;61.85
30614;BME280;17381;51.690;5.270;2022-09-21T20:43:34;102560.97;;;13.35;61.99
30614;BME280;17381;51.690;5.270;2022-09-21T20:45:59;102560.13;;;13.31;62.02
30614;BME280;17381;51.690;5.270;2022-09-21T20:48:30;102530.34;;;13.10;62.11
30614;BME280;17381;51.690;5.270;2022-09-21T20:51:02;102559.28;;;13.23;62.25
30614;BME280;17381;51.690;5.270;2022-09-21T20:53:34;102560.16;;;13.25;62.96
30614;BME280;17381;51.690;5.270;2022-09-21T20:56:10;102554.00;;;13.23;62.50
30614;BME280;17381;51.690;5.270;2022-09-21T20:58:39;102558.41;;;13.21;62.62
30614;BME280;17381;51.690;5.270;2022-09-21T21:01:09;102568.13;;;13.17;62.68
30614;BME280;17381;51.690;5.270;2022-09-21T21:03:40;102550.59;;;13.10;62.67
30614;BME280;17381;51.690;5.270;2022-09-21T21:06:14;102497.19;;;12.79;62.58
30614;BME280;17381;51.690;5.270;2022-09-21T21:09:03;102550.59;;;13.10;62.49
30614;BME280;17381;51.690;5.270;2022-09-21T21:11:41;102548.06;;;12.99;62.70
30614;BME280;17381;51.690;5.270;2022-09-21T21:17:36;102551.63;;;12.92;62.75
30614;BME280;17381;51.690;5.270;2022-09-21T21:20:24;102547.31;;;12.83;62.97
30614;BME280;17381;51.690;5.270;2022-09-21T21:22:50;102556.09;;;12.82;62.85
30614;BME280;17381;51.690;5.270;2022-09-21T21:25:22;102542.97;;;12.73;63.05
30614;BME280;17381;51.690;5.270;2022-09-21T21:28:03;102558.78;;;12.76;63.08
30614;BME280;17381;51.690;5.270;2022-09-21T21:30:29;102550.91;;;12.70;63.14
30614;BME280;17381;51.690;5.270;2022-09-21T21:32:56;102550.09;;;12.60;63.17
30614;BME280;17381;51.690;5.270;2022-09-21T21:35:38;102546.59;;;12.60;63.30
30614;BME280;17381;51.690;5.270;2022-09-21T21:38:17;102552.75;;;12.56;63.71
30614;BME280;17381;51.690;5.270;2022-09-21T21:40:54;102548.34;;;12.56;63.81
30614;BME280;17381;51.690;5.270;2022-09-21T21:43:23;102559.81;;;12.54;63.93
30614;BME280;17381;51.690;5.270;2022-09-21T21:45:55;102544.91;;;12.48;63.74
30614;BME280;17381;51.690;5.270;2022-09-21T21:49:09;102544.88;;;12.47;63.79
30614;BME280;17381;51.690;5.270;2022-09-21T21:52:09;102545.81;;;12.42;64.00
30614;BME280;17381;51.690;5.270;2022-09-21T21:55:11;102542.31;;;12.37;64.14
30614;BME280;17381;51.690;5.270;2022-09-21T21:57:55;102543.22;;;12.33;64.21
30614;BME280;17381;51.690;5.270;2022-09-21T22:00:26;102531.84;;;12.27;64.27
30614;BME280;17381;51.690;5.270;2022-09-21T22:03:00;102532.75;;;12.24;64.39
30614;BME280;17381;51.690;5.270;2022-09-21T22:05:44;102538.88;;;12.25;64.29
30614;BME280;17381;51.690;5.270;2022-09-21T22:08:23;102540.66;;;12.21;64.38
30614;BME280;17381;51.690;5.270;2022-09-21T22:10:59;102539.78;;;12.20;64.57
30614;BME280;17381;51.690;5.270;2022-09-21T22:13:49;102495.13;;;11.85;64.63
30614;BME280;17381;51.690;5.270;2022-09-21T22:16:26;102542.44;;;12.13;64.72
30614;BME280;17381;51.690;5.270;2022-09-21T22:19:04;102547.72;;;12.10;64.96
30614;BME280;17381;51.690;5.270;2022-09-21T22:21:44;102483.72;;;11.77;64.78
30614;BME280;17381;51.690;5.270;2022-09-21T22:24:18;102543.38;;;12.04;64.82
30614;BME280;17381;51.690;5.270;2022-09-21T22:26:54;102544.25;;;12.05;64.79
30614;BME280;17381;51.690;5.270;2022-09-21T22:29:29;102512.69;;;11.86;65.01
30614;BME280;17381;51.690;5.270;2022-09-21T22:31:57;102484.63;;;11.68;64.95
30614;BME280;17381;51.690;5.270;2022-09-21T22:34:24;102543.41;;;11.93;65.08
30614;BME280;17381;51.690;5.270;2022-09-21T22:36:52;102542.53;;;11.94;64.85
30614;BME280;17381;51.690;5.270;2022-09-21T22:39:19;102505.72;;;11.65;64.92
30614;BME280;17381;51.690;5.270;2022-09-21T22:41:46;102546.06;;;11.87;65.05
30614;BME280;17381;51.690;5.270;2022-09-21T22:44:17;102551.31;;;11.81;65.00
30614;BME280;17381;51.690;5.270;2022-09-21T22:46:43;102543.41;;;11.79;65.08
30614;BME280;17381;51.690;5.270;2022-09-21T22:49:09;102539.06;;;11.74;65.24
30614;BME280;17381;51.690;5.270;2022-09-21T22:51:35;102544.31;;;11.74;65.19
30614;BME280;17381;51.690;5.270;2022-09-21T22:54:04;102535.56;;;11.69;65.46
30614;BME280;17381;51.690;5.270;2022-09-21T22:56:31;102540.84;;;11.66;65.66
30614;BME280;17381;51.690;5.270;2022-09-21T22:59:02;102542.59;;;11.64;65.77
30614;BME280;17381;51.690;5.270;2022-09-21T23:01:38;102542.59;;;11.64;65.71
30614;BME280;17381;51.690;5.270;2022-09-21T23:04:13;102537.34;;;11.61;65.62
30614;BME280;17381;51.690;5.270;2022-09-21T23:06:46;102536.47;;;11.55;65.77
30614;BME280;17381;51.690;5.270;2022-09-21T23:09:20;102538.25;;;11.56;65.79
30614;BME280;17381;51.690;5.270;2022-09-21T23:11:53;102531.22;;;11.52;65.63
30614;BME280;17381;51.690;5.270;2022-09-21T23:14:31;102540.00;;;11.51;65.90
30614;BME280;17381;51.690;5.270;2022-09-21T23:16:57;102504.91;;;11.32;66.05
30614;BME280;17381;51.690;5.270;2022-09-21T23:19:25;102527.72;;;11.47;65.88
30614;BME280;17381;51.690;5.270;2022-09-21T23:21:54;102536.47;;;11.48;65.92
30614;BME280;17381;51.690;5.270;2022-09-21T23:24:20;102530.38;;;11.41;66.04
30614;BME280;17381;51.690;5.270;2022-09-21T23:26:50;102541.75;;;11.43;66.35
30614;BME280;17381;51.690;5.270;2022-09-21T23:29:16;102539.13;;;11.40;66.42
30614;BME280;17381;51.690;5.270;2022-09-21T23:31:43;102526.84;;;11.33;66.20
30614;BME280;17381;51.690;5.270;2022-09-21T23:34:09;102524.25;;;11.36;66.42
30614;BME280;17381;51.690;5.270;2022-09-21T23:36:44;102530.38;;;11.32;66.25
30614;BME280;17381;51.690;5.270;2022-09-21T23:42:26;102520.72;;;11.29;66.49
30614;BME280;17381;51.690;5.270;2022-09-21T23:44:55;102528.63;;;11.28;66.63
30614;BME280;17381;51.690;5.270;2022-09-21T23:47:22;102511.06;;;11.18;66.72
30614;BME280;17381;51.690;5.270;2022-09-21T23:49:51;102522.47;;;11.23;66.39
30614;BME280;17381;51.690;5.270;2022-09-21T23:52:17;102514.63;;;11.18;66.53
30614;BME280;17381;51.690;5.270;2022-09-21T23:54:48;102515.47;;;11.19;66.41
30614;BME280;17381;51.690;5.270;2022-09-21T23:57:17;102519.88;;;11.17;66.62
30614;BME280;17381;51.690;5.270;2022-09-21T23:59:45;102517.22;;;11.12;66.88
